createdAt,value
2018-05-02T00:00:52.316Z,3.40
2018-05-02T00:03:22.212Z,3.43
2018-05-02T00:05:54.805Z,3.27
2018-05-02T00:08:23.575Z,3.37
2018-05-02T00:10:55.717Z,3.97
2018-05-02T00:13:25.347Z,3.20
2018-05-02T00:15:57.158Z,3.70
2018-05-02T00:18:25.894Z,3.87
2018-05-02T00:20:59.748Z,3.53
2018-05-02T00:23:29.810Z,3.90
2018-05-02T00:26:01.756Z,4.17
2018-05-02T00:28:30.553Z,3.43
2018-05-02T00:30:59.211Z,2.87
2018-05-02T00:33:31.533Z,3.27
2018-05-02T00:36:02.469Z,3.20
2018-05-02T00:38:35.619Z,3.27
2018-05-02T00:41:04.433Z,3.13
2018-05-02T00:43:37.248Z,3.07
2018-05-02T00:46:06.765Z,2.83
2018-05-02T00:48:39.067Z,2.90
2018-05-02T00:51:08.887Z,3.07
2018-05-02T00:53:37.594Z,2.50
2018-05-02T00:56:07.171Z,2.63
2018-05-02T00:58:37.467Z,2.40
2018-05-02T01:01:07.500Z,2.60
2018-05-02T01:03:37.049Z,2.60
2018-05-02T01:06:06.513Z,2.73
2018-05-02T01:08:36.817Z,2.47
2018-05-02T01:11:08.606Z,2.43
2018-05-02T01:13:43.736Z,2.80
2018-05-02T01:16:13.379Z,2.50
2018-05-02T01:18:42.377Z,2.70
2018-05-02T01:21:12.371Z,2.90
2018-05-02T01:23:42.125Z,2.57
2018-05-02T01:26:15.206Z,2.50
2018-05-02T01:28:43.960Z,2.80
2018-05-02T01:31:13.604Z,2.43
2018-05-02T01:33:46.916Z,2.43
2018-05-02T01:36:17.944Z,2.40
2018-05-02T01:38:49.545Z,2.47
2018-05-02T01:41:20.429Z,2.30
2018-05-02T01:43:55.420Z,2.40
2018-05-02T01:46:25.286Z,2.67
2018-05-02T01:49:06.016Z,2.20
2018-05-02T01:51:36.800Z,2.20
2018-05-02T01:54:07.656Z,2.20
2018-05-02T01:56:37.189Z,2.00
2018-05-02T01:59:09.379Z,2.40
2018-05-02T02:01:40.895Z,2.23
2018-05-02T02:04:10.711Z,2.50
2018-05-02T02:06:41.760Z,2.10
2018-05-02T02:09:11.422Z,2.00
2018-05-02T02:11:45.580Z,1.93
2018-05-02T02:14:16.365Z,2.43
2018-05-02T02:16:45.939Z,2.27
2018-05-02T02:19:15.218Z,2.10
2018-05-02T02:21:45.663Z,2.20
2018-05-02T02:24:14.968Z,2.33
2018-05-02T02:26:48.663Z,2.60
2018-05-02T02:29:20.814Z,2.20
2018-05-02T02:31:52.117Z,2.37
2018-05-02T02:34:21.799Z,2.50
2018-05-02T02:36:53.127Z,2.30
2018-05-02T02:39:23.020Z,2.30
2018-05-02T02:54:51.881Z,2.77
2018-05-02T02:57:22.279Z,2.73
2018-05-02T02:59:51.588Z,2.73
2018-05-02T03:02:21.410Z,2.53
2018-05-02T03:04:53.062Z,2.17
2018-05-02T03:07:25.090Z,2.63
2018-05-02T03:09:53.993Z,2.00
2018-05-02T03:12:24.733Z,2.80
2018-05-02T03:14:55.294Z,2.70
2018-05-02T03:30:23.490Z,2.80
2018-05-02T03:32:56.024Z,3.00
2018-05-02T03:35:26.136Z,2.87
2018-05-02T03:37:54.975Z,2.93
2018-05-02T03:40:26.479Z,2.67
2018-05-02T03:42:57.119Z,2.87
2018-05-02T03:45:28.975Z,3.40
2018-05-02T03:47:57.965Z,2.83
2018-05-02T03:50:28.656Z,3.00
2018-05-02T03:52:59.282Z,2.77
2018-05-02T03:55:30.680Z,2.70
2018-05-02T03:58:00.279Z,3.00
2018-05-02T04:01:35.921Z,3.20
2018-05-02T04:04:16.387Z,3.30
2018-05-02T04:06:55.698Z,3.10
2018-05-02T04:09:26.358Z,3.40
2018-05-02T04:11:59.637Z,3.20
2018-05-02T04:14:30.538Z,3.50
2018-05-02T04:17:04.754Z,3.20
2018-05-02T04:19:34.145Z,3.03
2018-05-02T04:22:02.861Z,3.13
2018-05-02T04:24:32.223Z,2.97
2018-05-02T04:27:01.042Z,3.10
2018-05-02T04:29:29.858Z,2.90
2018-05-02T04:31:59.603Z,3.27
2018-05-02T04:34:30.039Z,3.13
2018-05-02T04:37:02.532Z,3.27
2018-05-02T04:39:32.316Z,2.97
2018-05-02T04:42:03.053Z,3.40
2018-05-02T04:44:33.589Z,3.70
2018-05-02T04:47:05.366Z,3.50
2018-05-02T04:49:34.090Z,3.70
2018-05-02T04:52:02.848Z,3.60
2018-05-02T04:54:31.591Z,3.60
2018-05-02T04:57:04.920Z,3.53
2018-05-02T04:59:33.822Z,3.20
2018-05-02T05:02:05.171Z,3.60
2018-05-02T05:04:36.782Z,3.33
2018-05-02T05:07:07.518Z,3.90
2018-05-02T05:09:38.721Z,3.67
2018-05-02T05:12:09.013Z,3.93
2018-05-02T05:14:39.587Z,3.60
2018-05-02T05:17:11.668Z,3.80
2018-05-02T05:19:41.238Z,3.63
2018-05-02T05:22:11.442Z,4.07
2018-05-02T05:24:40.531Z,4.70
2018-05-02T05:27:11.958Z,3.93
2018-05-02T05:29:40.753Z,3.97
2018-05-02T05:32:13.104Z,3.70
2018-05-02T05:34:46.225Z,3.77
2018-05-02T05:37:18.411Z,3.37
2018-05-02T05:39:51.943Z,3.43
2018-05-02T05:42:22.652Z,3.33
2018-05-02T05:44:53.884Z,4.07
2018-05-02T05:47:23.567Z,3.63
2018-05-02T05:49:53.119Z,3.90
2018-05-02T05:52:21.909Z,3.80
2018-05-02T05:54:53.616Z,3.20
2018-05-02T05:57:25.260Z,3.67
2018-05-02T05:59:54.723Z,3.60
2018-05-02T06:02:27.629Z,3.50
2018-05-02T06:04:56.541Z,2.70
2018-05-02T06:07:30.057Z,3.20
2018-05-02T06:10:04.068Z,3.23
2018-05-02T06:12:33.576Z,3.27
2018-05-02T06:15:02.359Z,3.10
2018-05-02T06:17:31.850Z,3.43
2018-05-02T06:20:04.065Z,3.00
2018-05-02T06:22:32.859Z,3.17
2018-05-02T06:25:02.542Z,2.80
2018-05-02T06:27:35.041Z,3.20
2018-05-02T06:30:07.087Z,3.23
2018-05-02T06:32:37.382Z,3.20
2018-05-02T06:35:08.762Z,2.67
2018-05-02T06:37:37.675Z,3.27
2018-05-02T06:40:07.137Z,2.73
2018-05-02T06:42:39.172Z,3.10
2018-05-02T06:45:08.614Z,2.93
2018-05-02T06:47:37.431Z,3.00
2018-05-02T06:50:07.994Z,2.70
2018-05-02T06:52:37.183Z,3.17
2018-05-02T06:55:06.672Z,3.03
2018-05-02T06:57:38.381Z,3.23
2018-05-02T07:00:07.615Z,2.80
2018-05-02T07:02:38.879Z,2.70
2018-05-02T07:05:09.179Z,3.23
2018-05-02T07:07:43.994Z,3.27
2018-05-02T07:10:13.482Z,3.40
2018-05-02T07:12:43.880Z,2.83
2018-05-02T07:15:17.329Z,3.20
2018-05-02T07:17:50.063Z,2.90
2018-05-02T07:20:18.888Z,3.07
2018-05-02T07:22:50.605Z,2.90
2018-05-02T07:25:21.468Z,3.10
2018-05-02T07:27:53.157Z,2.80
2018-05-02T07:30:23.686Z,3.10
2018-05-02T07:32:55.211Z,2.90
2018-05-02T07:35:23.868Z,2.97
2018-05-02T07:37:57.703Z,2.80
2018-05-02T07:40:27.198Z,2.90
2018-05-02T07:42:56.101Z,3.10
2018-05-02T07:45:26.575Z,3.17
2018-05-02T07:47:56.681Z,3.47
2018-05-02T07:50:26.623Z,2.90
2018-05-02T07:52:58.602Z,2.93
2018-05-02T07:55:28.177Z,3.10
2018-05-02T07:57:57.804Z,3.47
2018-05-02T08:00:27.091Z,2.67
2018-05-02T08:02:56.217Z,3.13
2018-05-02T08:05:26.335Z,2.90
2018-05-02T08:07:55.927Z,3.33
2018-05-02T08:10:28.083Z,3.13
2018-05-02T08:12:57.993Z,3.23
2018-05-02T08:15:26.868Z,2.73
2018-05-02T08:17:57.381Z,2.93
2018-05-02T08:20:27.897Z,3.50
2018-05-02T08:22:56.716Z,3.20
2018-05-02T08:25:28.734Z,3.50
2018-05-02T08:27:58.257Z,3.17
2018-05-02T08:30:27.985Z,3.20
2018-05-02T08:32:58.975Z,3.40
2018-05-02T08:35:27.830Z,3.30
2018-05-02T08:37:59.982Z,3.03
2018-05-02T08:40:29.494Z,3.10
2018-05-02T08:43:00.476Z,3.37
2018-05-02T08:45:30.862Z,3.13
2018-05-02T08:48:00.031Z,3.80
2018-05-02T08:50:30.881Z,3.33
2018-05-02T08:53:00.685Z,3.63
2018-05-02T08:55:30.192Z,3.73
2018-05-02T08:58:03.815Z,3.73
2018-05-02T09:00:34.132Z,3.83
2018-05-02T09:03:03.752Z,4.33
2018-05-02T09:05:32.990Z,3.60
2018-05-02T09:08:01.785Z,4.03
2018-05-02T09:10:33.667Z,3.53
2018-05-02T09:13:04.285Z,4.23
2018-05-02T09:15:37.261Z,4.30
2018-05-02T09:18:06.108Z,3.93
2018-05-02T09:20:35.632Z,4.30
2018-05-02T09:23:06.880Z,3.93
2018-05-02T09:25:35.720Z,3.80
2018-05-02T09:28:06.329Z,4.03
2018-05-02T09:30:35.896Z,3.87
2018-05-02T09:33:08.411Z,4.27
2018-05-02T09:35:38.293Z,4.20
2018-05-02T09:38:11.141Z,4.00
2018-05-02T09:40:39.868Z,3.83
2018-05-02T09:43:12.954Z,4.53
2018-05-02T09:45:41.736Z,3.83
2018-05-02T09:48:11.974Z,3.80
2018-05-02T09:50:40.720Z,3.93
2018-05-02T09:53:10.590Z,4.33
2018-05-02T09:55:40.252Z,4.50
2018-05-02T09:58:11.386Z,4.73
2018-05-02T10:00:41.611Z,4.50
2018-05-02T10:03:13.337Z,4.47
2018-05-02T10:05:43.262Z,4.37
2018-05-02T10:08:13.169Z,4.10
2018-05-02T10:10:44.199Z,4.53
2018-05-02T10:13:12.924Z,4.10
2018-05-02T10:15:46.216Z,4.63
2018-05-02T10:18:17.445Z,4.50
2018-05-02T10:20:48.345Z,4.90
2018-05-02T10:23:17.205Z,4.87
2018-05-02T10:25:46.723Z,4.97
2018-05-02T10:28:17.872Z,4.93
2018-05-02T10:30:46.691Z,4.77
2018-05-02T10:33:15.474Z,4.90
2018-05-02T10:35:45.049Z,5.83
2018-05-02T10:38:14.526Z,5.30
2018-05-02T10:40:43.439Z,5.13
2018-05-02T10:43:13.112Z,5.27
2018-05-02T10:45:42.565Z,5.23
2018-05-02T10:48:13.081Z,5.63
2018-05-02T10:50:43.872Z,5.50
2018-05-02T10:53:12.814Z,5.13
2018-05-02T10:55:42.866Z,5.70
2018-05-02T10:58:13.223Z,5.47
2018-05-02T11:00:43.106Z,6.03
2018-05-02T11:03:12.643Z,5.40
2018-05-02T11:05:41.736Z,5.77
2018-05-02T11:08:10.588Z,6.40
2018-05-02T11:10:39.330Z,5.93
2018-05-02T11:13:08.142Z,6.20
2018-05-02T11:15:37.798Z,6.00
2018-05-02T11:18:06.547Z,6.30
2018-05-02T11:20:37.158Z,6.83
2018-05-02T11:23:06.259Z,6.63
2018-05-02T11:25:35.908Z,6.80
2018-05-02T11:28:05.223Z,6.53
2018-05-02T11:30:33.964Z,6.77
2018-05-02T11:33:03.463Z,7.63
2018-05-02T11:35:33.384Z,7.70
2018-05-02T11:38:02.723Z,7.10
2018-05-02T11:40:33.300Z,7.00
2018-05-02T11:43:02.999Z,7.50
2018-05-02T11:45:33.471Z,7.20
2018-05-02T11:48:04.735Z,6.93
2018-05-02T11:50:33.588Z,7.53
2018-05-02T11:53:03.092Z,8.07
2018-05-02T11:55:31.800Z,7.80
2018-05-02T11:58:01.597Z,7.60
2018-05-02T12:00:32.977Z,7.10
2018-05-02T12:03:03.776Z,7.30
2018-05-02T12:05:33.591Z,7.57
2018-05-02T12:08:02.321Z,7.43
2018-05-02T12:10:31.571Z,7.57
2018-05-02T12:13:01.006Z,8.03
2018-05-02T12:15:29.928Z,8.10
2018-05-02T12:18:00.390Z,8.23
2018-05-02T12:20:30.658Z,7.43
2018-05-02T12:23:02.325Z,8.07
2018-05-02T12:25:31.053Z,7.87
2018-05-02T12:28:00.020Z,7.70
2018-05-02T12:30:29.653Z,7.97
2018-05-02T12:32:59.204Z,8.37
2018-05-02T12:35:29.495Z,8.63
2018-05-02T12:37:59.936Z,8.90
2018-05-02T12:40:28.868Z,8.23
2018-05-02T12:42:58.146Z,8.00
2018-05-02T12:45:28.656Z,8.83
2018-05-02T12:47:58.417Z,8.70
2018-05-02T12:50:27.120Z,8.80
2018-05-02T12:52:57.403Z,8.80
2018-05-02T12:55:27.182Z,8.07
2018-05-02T12:57:56.708Z,8.53
2018-05-02T13:00:25.574Z,7.77
2018-05-02T13:02:54.334Z,8.93
2018-05-02T13:05:23.143Z,8.83
2018-05-02T13:07:52.991Z,8.93
2018-05-02T13:10:23.634Z,8.40
2018-05-02T13:12:53.893Z,9.00
2018-05-02T13:15:22.667Z,9.07
2018-05-02T13:17:52.956Z,9.70
2018-05-02T13:20:21.680Z,9.70
2018-05-02T13:22:51.416Z,9.30
2018-05-02T13:25:22.126Z,8.67
2018-05-02T13:27:51.606Z,9.37
2018-05-02T13:30:22.189Z,9.00
2018-05-02T13:32:51.247Z,9.10
2018-05-02T13:35:20.771Z,9.20
2018-05-02T13:37:52.315Z,8.60
2018-05-02T13:40:21.875Z,9.23
2018-05-02T13:42:52.464Z,9.53
2018-05-02T13:45:23.212Z,9.17
2018-05-02T13:47:54.900Z,8.47
2018-05-02T13:50:26.589Z,8.57
2018-05-02T13:52:57.893Z,8.27
2018-05-02T13:55:27.075Z,8.17
2018-05-02T13:57:57.715Z,7.80
2018-05-02T14:00:27.550Z,7.43
2018-05-02T14:02:56.531Z,7.03
2018-05-02T14:05:25.327Z,7.10
2018-05-02T14:07:55.908Z,7.27
2018-05-02T14:11:06.245Z,7.80
2018-05-02T14:13:33.817Z,7.70
2018-05-02T14:16:01.945Z,7.97
2018-05-02T14:18:29.950Z,7.80
2018-05-02T14:20:57.464Z,8.23
2018-05-02T14:23:25.742Z,6.70
2018-05-02T14:25:55.254Z,6.63
2018-05-02T14:28:23.004Z,6.67
2018-05-02T14:30:50.664Z,7.07
2018-05-02T14:33:18.212Z,6.97
2018-05-02T14:35:45.738Z,7.00
2018-05-02T14:38:13.293Z,6.77
2018-05-02T14:40:41.709Z,6.80
2018-05-02T14:43:10.244Z,6.67
2018-05-02T14:45:38.820Z,7.13
2018-05-02T14:48:07.325Z,6.50
2018-05-02T14:50:35.633Z,7.33
2018-05-02T14:53:03.207Z,7.13
2018-05-02T14:55:30.813Z,8.10
2018-05-02T14:57:59.111Z,7.40
2018-05-02T15:00:27.389Z,8.13
2018-05-02T15:02:55.000Z,7.47
2018-05-02T15:05:23.030Z,7.90
2018-05-02T15:07:50.541Z,8.30
2018-05-02T15:10:18.096Z,8.47
2018-05-02T15:12:45.644Z,8.97
2018-05-02T15:15:15.133Z,9.03
2018-05-02T15:17:42.705Z,9.47
2018-05-02T15:20:11.157Z,8.67
2018-05-02T15:22:38.699Z,9.43
2018-05-02T15:25:06.227Z,9.20
2018-05-02T15:27:34.713Z,9.20
2018-05-02T15:30:02.242Z,9.30
2018-05-02T15:32:29.883Z,9.17
2018-05-02T15:34:58.280Z,10.23
2018-05-02T15:37:26.508Z,9.57
2018-05-02T15:39:54.169Z,9.73
2018-05-02T15:42:21.819Z,9.43
2018-05-02T15:44:50.301Z,9.33
2018-05-02T15:47:17.808Z,8.60
2018-05-02T15:49:45.458Z,9.93
2018-05-02T15:52:13.004Z,9.67
2018-05-02T15:54:41.270Z,9.77
2018-05-02T15:57:08.955Z,10.00
2018-05-02T15:59:36.620Z,10.60
2018-05-02T16:02:04.959Z,10.97
2018-05-02T16:04:33.399Z,11.70
2018-05-02T16:07:01.697Z,12.30
2018-05-02T16:09:30.180Z,12.47
2018-05-02T16:11:58.642Z,12.17
2018-05-02T16:14:26.140Z,11.90
2018-05-02T16:16:53.676Z,12.83
2018-05-02T16:19:21.993Z,10.30
2018-05-02T16:21:49.503Z,11.40
2018-05-02T16:24:17.018Z,12.43
2018-05-02T16:26:45.491Z,12.60
2018-05-02T16:29:13.057Z,12.10
2018-05-02T16:31:40.612Z,11.93
2018-05-02T16:34:08.134Z,11.50
2018-05-02T16:36:36.593Z,11.67
2018-05-02T16:39:04.274Z,11.67
2018-05-02T16:41:31.795Z,11.40
2018-05-02T16:43:59.305Z,11.37
2018-05-02T16:46:26.825Z,11.77
2018-05-02T16:48:54.393Z,17.37
2018-05-02T16:51:22.878Z,11.73
2018-05-02T16:53:50.556Z,11.27
2018-05-02T16:56:18.135Z,11.23
2018-05-02T16:58:45.710Z,11.63
2018-05-02T17:01:13.289Z,11.43
2018-05-02T17:03:40.839Z,11.83
2018-05-02T17:06:08.549Z,11.63
2018-05-02T17:08:36.276Z,12.57
2018-05-02T17:11:04.720Z,12.27
2018-05-02T17:13:32.324Z,12.60
2018-05-02T17:15:59.824Z,12.13
2018-05-02T17:18:27.394Z,12.47
2018-05-02T17:20:54.969Z,12.17
2018-05-02T17:23:22.533Z,11.13
2018-05-02T17:25:50.107Z,11.77
2018-05-02T17:28:18.316Z,11.67
2018-05-02T17:30:45.987Z,11.07
2018-05-02T17:33:13.492Z,11.47
2018-05-02T17:35:41.820Z,12.03
2018-05-02T17:38:09.462Z,12.57
2018-05-02T17:40:37.326Z,11.70
2018-05-02T17:43:05.633Z,11.60
2018-05-02T17:45:33.179Z,11.30
2018-05-02T17:48:00.835Z,11.93
2018-05-02T17:50:28.428Z,15.97
2018-05-02T17:52:57.957Z,14.73
2018-05-02T17:55:25.517Z,11.93
2018-05-02T17:57:53.044Z,12.37
2018-05-02T18:00:20.612Z,13.43
2018-05-02T18:02:48.133Z,18.03
2018-05-02T18:05:16.572Z,15.57
2018-05-02T18:07:44.299Z,16.13
2018-05-02T18:10:12.001Z,14.67
2018-05-02T18:12:41.379Z,14.03
2018-05-02T18:15:09.955Z,12.57
2018-05-02T18:17:38.524Z,14.43
2018-05-02T18:20:06.236Z,12.70
2018-05-02T18:22:35.569Z,12.73
2018-05-02T18:25:03.215Z,11.93
2018-05-02T18:27:30.828Z,11.93
2018-05-02T18:30:01.533Z,11.87
2018-05-02T18:32:29.294Z,12.20
2018-05-02T18:34:56.835Z,11.33
2018-05-02T18:37:25.150Z,11.90
2018-05-02T18:39:53.626Z,11.67
2018-05-02T18:42:22.068Z,11.87
2018-05-02T18:44:50.578Z,11.70
2018-05-02T18:47:19.025Z,12.07
2018-05-02T18:49:46.576Z,12.10
2018-05-02T18:52:14.117Z,11.70
2018-05-02T18:54:41.992Z,11.40
2018-05-02T18:57:31.907Z,12.10
2018-05-02T19:00:00.019Z,12.23
2018-05-02T19:02:28.967Z,12.63
2018-05-02T19:04:57.398Z,12.83
2018-05-02T19:07:26.610Z,12.33
2018-05-02T19:12:35.663Z,13.50
2018-05-02T19:15:03.223Z,12.53
2018-05-02T19:17:31.743Z,13.60
2018-05-02T19:20:05.004Z,13.77
2018-05-02T19:22:32.657Z,13.13
2018-05-02T19:25:06.510Z,13.70
2018-05-02T19:27:34.030Z,13.83
2018-05-02T19:30:05.534Z,14.27
2018-05-02T19:32:39.641Z,13.50
2018-05-02T19:35:07.216Z,14.33
2018-05-02T19:37:34.757Z,13.77
2018-05-02T19:40:10.924Z,14.33
2018-05-02T19:42:44.949Z,14.80
2018-05-02T19:45:13.461Z,14.83
2018-05-02T19:47:43.380Z,16.27
2018-05-02T19:50:13.952Z,14.87
2018-05-02T19:52:46.439Z,14.93
2018-05-02T19:55:16.265Z,15.37
2018-05-02T19:57:44.337Z,15.60
2018-05-02T20:00:27.732Z,14.73
2018-05-02T20:03:01.056Z,15.27
2018-05-02T20:05:28.608Z,15.40
2018-05-02T20:07:56.158Z,15.40
2018-05-02T20:10:30.096Z,14.87
2018-05-02T20:13:03.170Z,14.27
2018-05-02T20:15:30.795Z,15.47
2018-05-02T20:17:58.321Z,15.37
2018-05-02T20:20:28.820Z,15.73
2018-05-02T20:22:57.164Z,15.23
2018-05-02T20:25:24.770Z,15.70
2018-05-02T20:27:53.086Z,14.70
2018-05-02T20:30:21.236Z,14.93
2018-05-02T20:32:51.054Z,15.53
2018-05-02T20:35:19.411Z,14.73
2018-05-02T20:37:46.957Z,15.37
2018-05-02T20:40:14.595Z,15.00
2018-05-02T20:42:42.298Z,15.30
2018-05-02T20:45:10.591Z,14.77
2018-05-02T20:47:39.142Z,15.67
2018-05-02T20:50:06.673Z,15.37
2018-05-02T20:52:35.294Z,15.77
2018-05-02T20:55:04.986Z,15.27
2018-05-02T20:57:33.241Z,15.80
2018-05-02T21:00:01.528Z,15.87
2018-05-02T21:02:30.736Z,16.40
2018-05-02T21:04:59.854Z,15.10
2018-05-02T21:07:27.399Z,15.93
2018-05-02T21:09:54.949Z,16.23
2018-05-02T21:12:24.422Z,16.47
2018-05-02T21:14:52.867Z,15.57
2018-05-02T21:17:21.297Z,17.13
2018-05-02T21:19:49.013Z,17.13
2018-05-02T21:22:35.695Z,16.20
2018-05-02T21:25:03.393Z,16.47
2018-05-02T21:27:30.905Z,16.77
2018-05-02T21:29:58.474Z,15.47
2018-05-02T21:32:26.084Z,16.50
2018-05-02T21:34:53.614Z,17.03
2018-05-02T21:37:23.044Z,17.47
2018-05-02T21:39:52.723Z,17.57
2018-05-02T21:42:22.173Z,18.07
2018-05-02T21:44:50.622Z,17.03
2018-05-02T21:47:18.139Z,17.23
2018-05-02T21:49:48.490Z,17.10
2018-05-02T21:52:16.871Z,18.07
2018-05-02T21:54:44.382Z,18.47
2018-05-02T21:57:12.694Z,17.33
2018-05-02T21:59:41.236Z,17.93
2018-05-02T22:02:10.532Z,17.47
2018-05-02T22:04:39.169Z,18.33
2018-05-02T22:07:08.755Z,17.50
2018-05-02T22:09:37.487Z,18.40
2018-05-02T22:12:05.476Z,18.83
2018-05-02T22:14:34.197Z,18.07
2018-05-02T22:17:02.749Z,18.50
2018-05-02T22:19:31.016Z,18.53
2018-05-02T22:21:58.976Z,18.70
2018-05-02T22:24:27.527Z,19.60
2018-05-02T22:26:56.105Z,18.80
2018-05-02T22:29:23.619Z,19.77
2018-05-02T22:31:51.636Z,20.80
2018-05-02T22:34:21.489Z,20.87
2018-05-02T22:36:49.008Z,20.07
2018-05-02T22:39:17.473Z,20.70
2018-05-02T22:41:44.966Z,21.30
2018-05-02T22:44:13.388Z,20.80
2018-05-02T22:46:40.936Z,21.30
2018-05-02T22:49:09.552Z,21.67
2018-05-02T22:51:39.570Z,21.00
2018-05-02T22:54:07.073Z,19.97
2018-05-02T22:56:36.542Z,20.47
2018-05-02T22:59:07.071Z,21.70
2018-05-02T23:01:34.644Z,20.83
2018-05-02T23:04:02.171Z,20.90
2018-05-02T23:06:30.452Z,20.50
2018-05-02T23:08:57.983Z,21.63
2018-05-02T23:11:27.339Z,21.53
2018-05-02T23:13:55.632Z,20.47
2018-05-02T23:16:23.201Z,20.30
2018-05-02T23:18:51.670Z,19.37
2018-05-02T23:21:20.373Z,20.87
2018-05-02T23:23:49.380Z,20.47
2018-05-02T23:26:16.898Z,19.83
2018-05-02T23:28:45.200Z,20.13
2018-05-02T23:31:13.650Z,19.90
2018-05-02T23:33:41.991Z,20.47
2018-05-02T23:36:09.714Z,21.07
2018-05-02T23:38:37.225Z,21.13
2018-05-02T23:41:04.759Z,21.20
2018-05-02T23:43:33.045Z,21.03
2018-05-02T23:46:00.564Z,20.73
2018-05-02T23:48:28.080Z,20.80
2018-05-02T23:51:00.483Z,20.73
2018-05-02T23:53:29.196Z,20.47
2018-05-02T23:55:56.740Z,20.43
2018-05-02T23:58:24.327Z,19.97
